McCormick, South Carolina
Current Conditions -  °F | °C
As of 1:56 PM on Thursday 27 Nov 2014 (Local Time) from KGRD Reporting Station
Broken Clouds Broken Clouds  
Wind Chill: 52°   Ceiling: 6500
Heat Index: 52°   Visibility: 10mi
Dew Point: 26°   Wind: 10mph
Humidity: 37%   Direction: 270°W
Pressure: 30.16"   Gusts: 21mph
Location:  33.91°N, 82.29°W
Report Text: KGRD 271856Z AUTO 27009G18KT 10SM BKN065 11/M03 A3016 RMK AO2 SLP213 T01111033
Loading
Personal Weather Stations






























Interactive Weather Map New forecast layout! Learn more

10-Day Weather Forecast

Advertisements
Track Severe Weather on mobile